sensor_id;sensor_type;location;lat;lon;timestamp;P1;durP1;ratioP1;P2;durP2;ratioP2
71238;SDS011;61342;51.442;7.370;2023-05-27T00:00:31;13.50;;;4.93;;
71238;SDS011;61342;51.442;7.370;2023-05-27T00:01:33;17.17;;;4.80;;
71238;SDS011;61342;51.442;7.370;2023-05-27T00:02:33;16.67;;;5.13;;
71238;SDS011;61342;51.442;7.370;2023-05-27T00:03:34;17.63;;;5.00;;
71238;SDS011;61342;51.442;7.370;2023-05-27T00:04:34;13.43;;;5.13;;
71238;SDS011;61342;51.442;7.370;2023-05-27T00:05:34;14.33;;;4.87;;
71238;SDS011;61342;51.442;7.370;2023-05-27T00:06:35;15.93;;;5.43;;
71238;SDS011;61342;51.442;7.370;2023-05-27T00:07:36;21.77;;;5.43;;
71238;SDS011;61342;51.442;7.370;2023-05-27T00:08:36;15.67;;;5.47;;
71238;SDS011;61342;51.442;7.370;2023-05-27T00:09:36;13.97;;;5.27;;
71238;SDS011;61342;51.442;7.370;2023-05-27T00:10:37;14.57;;;4.73;;
71238;SDS011;61342;51.442;7.370;2023-05-27T00:11:37;16.43;;;5.27;;
71238;SDS011;61342;51.442;7.370;2023-05-27T00:12:38;14.27;;;4.97;;
71238;SDS011;61342;51.442;7.370;2023-05-27T00:13:38;15.80;;;5.40;;
71238;SDS011;61342;51.442;7.370;2023-05-27T00:14:39;16.70;;;5.67;;
71238;SDS011;61342;51.442;7.370;2023-05-27T00:15:39;19.87;;;5.23;;
71238;SDS011;61342;51.442;7.370;2023-05-27T00:16:40;13.77;;;4.57;;
71238;SDS011;61342;51.442;7.370;2023-05-27T00:17:40;16.47;;;5.00;;
71238;SDS011;61342;51.442;7.370;2023-05-27T00:18:42;16.00;;;5.50;;
71238;SDS011;61342;51.442;7.370;2023-05-27T00:19:43;11.33;;;4.50;;
71238;SDS011;61342;51.442;7.370;2023-05-27T00:20:47;11.90;;;4.97;;
71238;SDS011;61342;51.442;7.370;2023-05-27T00:21:48;20.00;;;4.90;;
71238;SDS011;61342;51.442;7.370;2023-05-27T00:22:49;15.03;;;5.37;;
71238;SDS011;61342;51.442;7.370;2023-05-27T00:23:50;13.53;;;5.23;;
71238;SDS011;61342;51.442;7.370;2023-05-27T00:24:51;12.40;;;5.23;;
71238;SDS011;61342;51.442;7.370;2023-05-27T00:25:52;13.50;;;4.93;;
71238;SDS011;61342;51.442;7.370;2023-05-27T00:26:52;13.67;;;5.20;;
71238;SDS011;61342;51.442;7.370;2023-05-27T00:27:53;14.97;;;4.90;;
71238;SDS011;61342;51.442;7.370;2023-05-27T00:28:54;16.20;;;4.93;;
71238;SDS011;61342;51.442;7.370;2023-05-27T00:29:55;16.27;;;5.37;;
71238;SDS011;61342;51.442;7.370;2023-05-27T00:30:55;12.57;;;4.97;;
71238;SDS011;61342;51.442;7.370;2023-05-27T00:31:57;15.23;;;4.80;;
71238;SDS011;61342;51.442;7.370;2023-05-27T00:32:57;21.43;;;5.90;;
71238;SDS011;61342;51.442;7.370;2023-05-27T00:33:58;14.27;;;5.17;;
71238;SDS011;61342;51.442;7.370;2023-05-27T00:34:58;11.87;;;4.57;;
71238;SDS011;61342;51.442;7.370;2023-05-27T00:35:58;16.47;;;4.90;;
71238;SDS011;61342;51.442;7.370;2023-05-27T00:36:59;16.97;;;4.93;;
71238;SDS011;61342;51.442;7.370;2023-05-27T00:37:59;16.80;;;5.10;;
71238;SDS011;61342;51.442;7.370;2023-05-27T00:39:00;15.77;;;4.97;;
71238;SDS011;61342;51.442;7.370;2023-05-27T00:40:01;15.70;;;5.80;;
71238;SDS011;61342;51.442;7.370;2023-05-27T00:41:03;13.97;;;4.60;;
71238;SDS011;61342;51.442;7.370;2023-05-27T00:42:04;17.50;;;5.90;;
71238;SDS011;61342;51.442;7.370;2023-05-27T00:43:05;11.90;;;5.27;;
71238;SDS011;61342;51.442;7.370;2023-05-27T00:44:06;17.43;;;5.03;;
71238;SDS011;61342;51.442;7.370;2023-05-27T00:45:07;15.57;;;5.10;;
71238;SDS011;61342;51.442;7.370;2023-05-27T00:46:08;13.00;;;5.00;;
71238;SDS011;61342;51.442;7.370;2023-05-27T00:47:09;13.03;;;5.07;;
71238;SDS011;61342;51.442;7.370;2023-05-27T00:48:10;18.20;;;5.20;;
71238;SDS011;61342;51.442;7.370;2023-05-27T00:49:11;12.20;;;4.97;;
71238;SDS011;61342;51.442;7.370;2023-05-27T00:50:12;19.13;;;5.67;;
71238;SDS011;61342;51.442;7.370;2023-05-27T00:51:12;14.77;;;5.13;;
71238;SDS011;61342;51.442;7.370;2023-05-27T00:52:13;17.30;;;5.53;;
71238;SDS011;61342;51.442;7.370;2023-05-27T00:53:15;15.13;;;5.67;;
71238;SDS011;61342;51.442;7.370;2023-05-27T00:54:16;14.97;;;5.53;;
71238;SDS011;61342;51.442;7.370;2023-05-27T00:55:17;18.20;;;5.83;;
71238;SDS011;61342;51.442;7.370;2023-05-27T00:56:17;13.43;;;5.13;;
71238;SDS011;61342;51.442;7.370;2023-05-27T00:57:18;17.07;;;5.57;;
71238;SDS011;61342;51.442;7.370;2023-05-27T00:58:19;13.30;;;5.27;;
71238;SDS011;61342;51.442;7.370;2023-05-27T00:59:21;11.77;;;4.70;;
71238;SDS011;61342;51.442;7.370;2023-05-27T01:00:23;13.17;;;5.50;;
71238;SDS011;61342;51.442;7.370;2023-05-27T01:01:24;11.80;;;5.10;;
71238;SDS011;61342;51.442;7.370;2023-05-27T01:02:28;19.17;;;5.80;;
71238;SDS011;61342;51.442;7.370;2023-05-27T01:03:28;17.47;;;5.67;;
71238;SDS011;61342;51.442;7.370;2023-05-27T01:04:32;13.40;;;6.27;;
71238;SDS011;61342;51.442;7.370;2023-05-27T01:05:33;14.53;;;5.97;;
71238;SDS011;61342;51.442;7.370;2023-05-27T01:08:28;16.07;;;4.90;;
71238;SDS011;61342;51.442;7.370;2023-05-27T01:10:56;16.20;;;5.20;;
71238;SDS011;61342;51.442;7.370;2023-05-27T01:14:10;13.20;;;5.47;;
71238;SDS011;61342;51.442;7.370;2023-05-27T01:15:13;20.30;;;5.97;;
71238;SDS011;61342;51.442;7.370;2023-05-27T01:16:14;17.87;;;5.80;;
71238;SDS011;61342;51.442;7.370;2023-05-27T01:17:16;19.50;;;5.20;;
71238;SDS011;61342;51.442;7.370;2023-05-27T01:18:18;14.07;;;4.70;;
71238;SDS011;61342;51.442;7.370;2023-05-27T01:19:27;17.33;;;5.40;;
71238;SDS011;61342;51.442;7.370;2023-05-27T01:20:30;16.33;;;6.50;;
71238;SDS011;61342;51.442;7.370;2023-05-27T01:21:32;11.00;;;5.00;;
71238;SDS011;61342;51.442;7.370;2023-05-27T01:22:36;15.20;;;5.10;;
71238;SDS011;61342;51.442;7.370;2023-05-27T01:23:41;15.87;;;6.10;;
71238;SDS011;61342;51.442;7.370;2023-05-27T01:24:42;18.37;;;5.90;;
71238;SDS011;61342;51.442;7.370;2023-05-27T01:25:42;14.23;;;5.47;;
71238;SDS011;61342;51.442;7.370;2023-05-27T01:26:43;17.40;;;5.27;;
71238;SDS011;61342;51.442;7.370;2023-05-27T01:27:43;17.30;;;5.67;;
71238;SDS011;61342;51.442;7.370;2023-05-27T01:28:44;17.13;;;5.47;;
71238;SDS011;61342;51.442;7.370;2023-05-27T01:29:45;19.83;;;5.57;;
71238;SDS011;61342;51.442;7.370;2023-05-27T01:30:46;16.20;;;6.00;;
71238;SDS011;61342;51.442;7.370;2023-05-27T01:31:47;15.77;;;5.57;;
71238;SDS011;61342;51.442;7.370;2023-05-27T01:33:13;13.80;;;5.40;;
71238;SDS011;61342;51.442;7.370;2023-05-27T01:34:21;15.03;;;5.47;;
71238;SDS011;61342;51.442;7.370;2023-05-27T01:36:36;20.20;;;5.30;;
71238;SDS011;61342;51.442;7.370;2023-05-27T01:37:41;19.30;;;5.10;;
71238;SDS011;61342;51.442;7.370;2023-05-27T01:38:45;17.73;;;5.60;;
71238;SDS011;61342;51.442;7.370;2023-05-27T01:39:48;15.57;;;5.37;;
71238;SDS011;61342;51.442;7.370;2023-05-27T01:40:50;18.87;;;5.90;;
71238;SDS011;61342;51.442;7.370;2023-05-27T01:41:51;13.57;;;5.70;;
71238;SDS011;61342;51.442;7.370;2023-05-27T01:42:53;19.00;;;5.47;;
71238;SDS011;61342;51.442;7.370;2023-05-27T01:43:56;15.70;;;5.43;;
71238;SDS011;61342;51.442;7.370;2023-05-27T01:44:58;17.30;;;5.73;;
71238;SDS011;61342;51.442;7.370;2023-05-27T01:46:00;16.43;;;5.70;;
71238;SDS011;61342;51.442;7.370;2023-05-27T01:47:01;14.20;;;4.87;;
71238;SDS011;61342;51.442;7.370;2023-05-27T01:48:02;12.63;;;5.70;;
71238;SDS011;61342;51.442;7.370;2023-05-27T01:49:03;18.63;;;5.20;;
71238;SDS011;61342;51.442;7.370;2023-05-27T01:50:04;13.73;;;5.00;;
71238;SDS011;61342;51.442;7.370;2023-05-27T01:51:05;12.37;;;5.17;;
71238;SDS011;61342;51.442;7.370;2023-05-27T01:52:06;15.83;;;5.77;;
71238;SDS011;61342;51.442;7.370;2023-05-27T01:53:08;17.57;;;5.27;;
71238;SDS011;61342;51.442;7.370;2023-05-27T01:54:09;14.50;;;6.27;;
71238;SDS011;61342;51.442;7.370;2023-05-27T01:55:10;17.70;;;5.60;;
71238;SDS011;61342;51.442;7.370;2023-05-27T01:56:11;14.83;;;5.60;;
71238;SDS011;61342;51.442;7.370;2023-05-27T01:57:11;20.27;;;6.33;;
71238;SDS011;61342;51.442;7.370;2023-05-27T01:58:11;18.23;;;5.93;;
71238;SDS011;61342;51.442;7.370;2023-05-27T01:59:12;16.33;;;5.90;;
71238;SDS011;61342;51.442;7.370;2023-05-27T02:00:12;15.77;;;5.93;;
71238;SDS011;61342;51.442;7.370;2023-05-27T02:01:15;13.77;;;5.30;;
71238;SDS011;61342;51.442;7.370;2023-05-27T02:02:16;16.67;;;6.07;;
71238;SDS011;61342;51.442;7.370;2023-05-27T02:03:16;18.20;;;6.30;;
71238;SDS011;61342;51.442;7.370;2023-05-27T02:04:16;21.33;;;6.30;;
71238;SDS011;61342;51.442;7.370;2023-05-27T02:05:17;15.27;;;5.63;;
71238;SDS011;61342;51.442;7.370;2023-05-27T02:06:17;16.20;;;5.80;;
71238;SDS011;61342;51.442;7.370;2023-05-27T02:07:26;15.40;;;5.57;;
71238;SDS011;61342;51.442;7.370;2023-05-27T02:08:27;17.60;;;5.73;;
71238;SDS011;61342;51.442;7.370;2023-05-27T02:09:28;21.33;;;6.33;;
71238;SDS011;61342;51.442;7.370;2023-05-27T02:10:28;18.07;;;6.33;;
71238;SDS011;61342;51.442;7.370;2023-05-27T02:11:29;16.33;;;5.80;;
71238;SDS011;61342;51.442;7.370;2023-05-27T02:12:29;15.63;;;5.70;;
71238;SDS011;61342;51.442;7.370;2023-05-27T02:13:30;15.93;;;5.23;;
71238;SDS011;61342;51.442;7.370;2023-05-27T02:14:30;17.83;;;6.50;;
71238;SDS011;61342;51.442;7.370;2023-05-27T02:15:31;15.60;;;5.73;;
71238;SDS011;61342;51.442;7.370;2023-05-27T02:16:32;18.60;;;5.80;;
71238;SDS011;61342;51.442;7.370;2023-05-27T02:17:33;16.87;;;5.93;;
71238;SDS011;61342;51.442;7.370;2023-05-27T02:18:37;14.33;;;6.10;;
71238;SDS011;61342;51.442;7.370;2023-05-27T02:19:37;19.03;;;6.23;;
71238;SDS011;61342;51.442;7.370;2023-05-27T02:20:38;15.03;;;5.23;;
71238;SDS011;61342;51.442;7.370;2023-05-27T02:21:38;14.33;;;6.20;;
71238;SDS011;61342;51.442;7.370;2023-05-27T02:22:39;18.43;;;5.90;;
71238;SDS011;61342;51.442;7.370;2023-05-27T02:23:39;17.50;;;6.27;;
71238;SDS011;61342;51.442;7.370;2023-05-27T02:24:40;13.43;;;5.50;;
71238;SDS011;61342;51.442;7.370;2023-05-27T02:25:40;15.67;;;5.47;;
71238;SDS011;61342;51.442;7.370;2023-05-27T02:26:41;15.93;;;5.97;;
71238;SDS011;61342;51.442;7.370;2023-05-27T02:27:41;13.00;;;5.13;;
71238;SDS011;61342;51.442;7.370;2023-05-27T02:28:44;16.23;;;5.70;;
71238;SDS011;61342;51.442;7.370;2023-05-27T02:29:44;18.53;;;5.97;;
71238;SDS011;61342;51.442;7.370;2023-05-27T02:30:44;15.60;;;5.53;;
71238;SDS011;61342;51.442;7.370;2023-05-27T02:31:45;20.20;;;5.97;;
71238;SDS011;61342;51.442;7.370;2023-05-27T02:32:45;13.67;;;5.60;;
71238;SDS011;61342;51.442;7.370;2023-05-27T02:33:46;23.07;;;5.73;;
71238;SDS011;61342;51.442;7.370;2023-05-27T02:34:46;14.70;;;5.97;;
71238;SDS011;61342;51.442;7.370;2023-05-27T02:35:46;16.77;;;6.30;;
71238;SDS011;61342;51.442;7.370;2023-05-27T02:36:47;18.47;;;5.90;;
71238;SDS011;61342;51.442;7.370;2023-05-27T02:37:47;15.03;;;5.63;;
71238;SDS011;61342;51.442;7.370;2023-05-27T02:38:48;12.93;;;5.87;;
71238;SDS011;61342;51.442;7.370;2023-05-27T02:39:49;17.43;;;6.17;;
71238;SDS011;61342;51.442;7.370;2023-05-27T02:40:49;14.93;;;6.60;;
71238;SDS011;61342;51.442;7.370;2023-05-27T02:41:50;13.67;;;5.50;;
71238;SDS011;61342;51.442;7.370;2023-05-27T02:42:50;16.40;;;5.83;;
71238;SDS011;61342;51.442;7.370;2023-05-27T02:43:50;14.77;;;5.90;;
71238;SDS011;61342;51.442;7.370;2023-05-27T02:44:51;18.97;;;6.43;;
71238;SDS011;61342;51.442;7.370;2023-05-27T02:45:52;16.73;;;6.57;;
71238;SDS011;61342;51.442;7.370;2023-05-27T02:46:52;14.73;;;5.63;;
71238;SDS011;61342;51.442;7.370;2023-05-27T02:47:53;18.10;;;6.37;;
71238;SDS011;61342;51.442;7.370;2023-05-27T02:48:55;16.07;;;6.50;;
71238;SDS011;61342;51.442;7.370;2023-05-27T02:49:55;20.40;;;6.00;;
71238;SDS011;61342;51.442;7.370;2023-05-27T02:50:56;20.40;;;6.17;;
71238;SDS011;61342;51.442;7.370;2023-05-27T02:51:56;15.47;;;6.07;;
71238;SDS011;61342;51.442;7.370;2023-05-27T02:52:57;15.87;;;5.97;;
71238;SDS011;61342;51.442;7.370;2023-05-27T02:53:57;14.03;;;6.67;;
71238;SDS011;61342;51.442;7.370;2023-05-27T02:55:00;14.80;;;6.53;;
71238;SDS011;61342;51.442;7.370;2023-05-27T02:56:00;16.77;;;6.30;;
71238;SDS011;61342;51.442;7.370;2023-05-27T02:57:01;20.07;;;6.83;;
71238;SDS011;61342;51.442;7.370;2023-05-27T02:58:01;13.60;;;5.93;;
71238;SDS011;61342;51.442;7.370;2023-05-27T02:59:03;15.37;;;6.23;;
71238;SDS011;61342;51.442;7.370;2023-05-27T03:00:04;15.93;;;6.47;;
71238;SDS011;61342;51.442;7.370;2023-05-27T03:01:05;17.77;;;6.57;;
71238;SDS011;61342;51.442;7.370;2023-05-27T03:02:05;22.20;;;7.13;;
71238;SDS011;61342;51.442;7.370;2023-05-27T03:03:06;15.17;;;6.50;;
71238;SDS011;61342;51.442;7.370;2023-05-27T03:04:07;14.03;;;6.83;;
71238;SDS011;61342;51.442;7.370;2023-05-27T03:05:07;15.63;;;6.97;;
71238;SDS011;61342;51.442;7.370;2023-05-27T03:06:08;15.93;;;6.00;;
71238;SDS011;61342;51.442;7.370;2023-05-27T03:07:08;14.63;;;6.60;;
71238;SDS011;61342;51.442;7.370;2023-05-27T03:08:09;15.03;;;6.20;;
71238;SDS011;61342;51.442;7.370;2023-05-27T03:09:09;16.93;;;6.23;;
71238;SDS011;61342;51.442;7.370;2023-05-27T03:10:10;16.70;;;6.23;;
71238;SDS011;61342;51.442;7.370;2023-05-27T03:11:11;19.17;;;6.77;;
71238;SDS011;61342;51.442;7.370;2023-05-27T03:12:11;17.53;;;6.60;;
71238;SDS011;61342;51.442;7.370;2023-05-27T03:13:12;17.97;;;6.30;;
71238;SDS011;61342;51.442;7.370;2023-05-27T03:14:12;16.67;;;7.00;;
71238;SDS011;61342;51.442;7.370;2023-05-27T03:15:12;17.80;;;6.60;;
71238;SDS011;61342;51.442;7.370;2023-05-27T03:16:14;18.00;;;6.73;;
71238;SDS011;61342;51.442;7.370;2023-05-27T03:17:15;16.40;;;6.53;;
71238;SDS011;61342;51.442;7.370;2023-05-27T03:18:15;15.47;;;6.37;;
71238;SDS011;61342;51.442;7.370;2023-05-27T03:19:16;16.23;;;6.93;;
71238;SDS011;61342;51.442;7.370;2023-05-27T03:20:16;16.07;;;6.67;;
71238;SDS011;61342;51.442;7.370;2023-05-27T03:21:18;19.80;;;6.67;;
71238;SDS011;61342;51.442;7.370;2023-05-27T03:22:19;19.37;;;6.30;;
71238;SDS011;61342;51.442;7.370;2023-05-27T03:23:20;19.37;;;6.30;;
71238;SDS011;61342;51.442;7.370;2023-05-27T03:24:20;18.27;;;6.80;;
71238;SDS011;61342;51.442;7.370;2023-05-27T03:25:21;18.47;;;6.43;;
71238;SDS011;61342;51.442;7.370;2023-05-27T03:26:23;19.67;;;6.90;;
71238;SDS011;61342;51.442;7.370;2023-05-27T03:27:25;19.70;;;7.43;;
71238;SDS011;61342;51.442;7.370;2023-05-27T03:28:26;23.57;;;7.10;;
71238;SDS011;61342;51.442;7.370;2023-05-27T03:29:26;16.97;;;6.80;;
71238;SDS011;61342;51.442;7.370;2023-05-27T03:30:27;22.60;;;7.10;;
71238;SDS011;61342;51.442;7.370;2023-05-27T03:31:27;19.17;;;7.03;;
71238;SDS011;61342;51.442;7.370;2023-05-27T03:32:28;13.97;;;6.40;;
71238;SDS011;61342;51.442;7.370;2023-05-27T03:33:28;20.40;;;7.10;;
71238;SDS011;61342;51.442;7.370;2023-05-27T03:34:29;17.50;;;6.83;;
71238;SDS011;61342;51.442;7.370;2023-05-27T03:35:29;12.83;;;6.53;;
71238;SDS011;61342;51.442;7.370;2023-05-27T03:36:30;19.00;;;6.63;;
71238;SDS011;61342;51.442;7.370;2023-05-27T03:37:30;15.93;;;6.13;;
71238;SDS011;61342;51.442;7.370;2023-05-27T03:38:31;21.10;;;6.80;;
71238;SDS011;61342;51.442;7.370;2023-05-27T03:39:31;15.97;;;6.23;;
71238;SDS011;61342;51.442;7.370;2023-05-27T03:40:31;15.47;;;6.87;;
71238;SDS011;61342;51.442;7.370;2023-05-27T03:41:32;15.57;;;6.53;;
71238;SDS011;61342;51.442;7.370;2023-05-27T03:42:33;15.03;;;6.60;;
71238;SDS011;61342;51.442;7.370;2023-05-27T03:43:33;19.87;;;6.60;;
71238;SDS011;61342;51.442;7.370;2023-05-27T03:44:33;14.93;;;7.13;;
71238;SDS011;61342;51.442;7.370;2023-05-27T03:45:34;15.60;;;5.97;;
71238;SDS011;61342;51.442;7.370;2023-05-27T03:46:34;15.57;;;5.87;;
71238;SDS011;61342;51.442;7.370;2023-05-27T03:47:35;14.80;;;6.70;;
71238;SDS011;61342;51.442;7.370;2023-05-27T03:48:36;14.87;;;6.00;;
71238;SDS011;61342;51.442;7.370;2023-05-27T03:49:36;15.37;;;6.00;;
71238;SDS011;61342;51.442;7.370;2023-05-27T03:50:36;15.23;;;6.67;;
71238;SDS011;61342;51.442;7.370;2023-05-27T03:51:37;17.83;;;6.80;;
71238;SDS011;61342;51.442;7.370;2023-05-27T03:52:37;17.53;;;6.60;;
71238;SDS011;61342;51.442;7.370;2023-05-27T03:53:38;12.73;;;6.53;;
71238;SDS011;61342;51.442;7.370;2023-05-27T03:54:38;18.33;;;6.37;;
71238;SDS011;61342;51.442;7.370;2023-05-27T03:55:38;14.73;;;6.10;;
71238;SDS011;61342;51.442;7.370;2023-05-27T03:56:39;15.50;;;6.27;;
71238;SDS011;61342;51.442;7.370;2023-05-27T03:57:39;19.87;;;6.77;;
71238;SDS011;61342;51.442;7.370;2023-05-27T03:58:40;12.67;;;5.70;;
71238;SDS011;61342;51.442;7.370;2023-05-27T03:59:40;13.87;;;6.13;;
71238;SDS011;61342;51.442;7.370;2023-05-27T04:00:41;16.07;;;6.10;;
71238;SDS011;61342;51.442;7.370;2023-05-27T04:01:42;18.23;;;5.60;;
71238;SDS011;61342;51.442;7.370;2023-05-27T04:02:43;24.77;;;6.27;;
71238;SDS011;61342;51.442;7.370;2023-05-27T04:03:44;16.90;;;6.70;;
71238;SDS011;61342;51.442;7.370;2023-05-27T04:04:45;19.47;;;6.47;;
71238;SDS011;61342;51.442;7.370;2023-05-27T04:05:48;15.80;;;6.50;;
71238;SDS011;61342;51.442;7.370;2023-05-27T04:06:49;17.30;;;6.67;;
71238;SDS011;61342;51.442;7.370;2023-05-27T04:07:49;17.40;;;6.20;;
71238;SDS011;61342;51.442;7.370;2023-05-27T04:08:49;12.87;;;6.40;;
71238;SDS011;61342;51.442;7.370;2023-05-27T04:09:50;18.90;;;6.30;;
71238;SDS011;61342;51.442;7.370;2023-05-27T04:10:50;12.13;;;6.10;;
71238;SDS011;61342;51.442;7.370;2023-05-27T04:11:51;16.57;;;6.23;;
71238;SDS011;61342;51.442;7.370;2023-05-27T04:12:51;16.77;;;6.80;;
71238;SDS011;61342;51.442;7.370;2023-05-27T04:13:52;17.73;;;6.87;;
71238;SDS011;61342;51.442;7.370;2023-05-27T04:14:52;11.43;;;5.90;;
71238;SDS011;61342;51.442;7.370;2023-05-27T04:15:52;15.10;;;5.97;;
71238;SDS011;61342;51.442;7.370;2023-05-27T04:16:53;16.43;;;6.60;;
71238;SDS011;61342;51.442;7.370;2023-05-27T04:17:54;19.10;;;6.50;;
71238;SDS011;61342;51.442;7.370;2023-05-27T04:18:54;16.23;;;6.40;;
71238;SDS011;61342;51.442;7.370;2023-05-27T04:19:55;15.20;;;6.43;;
71238;SDS011;61342;51.442;7.370;2023-05-27T04:20:59;18.17;;;6.10;;
71238;SDS011;61342;51.442;7.370;2023-05-27T04:22:00;15.57;;;6.67;;
71238;SDS011;61342;51.442;7.370;2023-05-27T04:23:03;13.77;;;5.90;;
71238;SDS011;61342;51.442;7.370;2023-05-27T04:24:04;19.53;;;6.00;;
71238;SDS011;61342;51.442;7.370;2023-05-27T04:25:04;19.00;;;6.70;;
71238;SDS011;61342;51.442;7.370;2023-05-27T04:26:05;12.53;;;6.07;;
71238;SDS011;61342;51.442;7.370;2023-05-27T04:27:06;13.07;;;6.43;;
71238;SDS011;61342;51.442;7.370;2023-05-27T04:28:07;17.77;;;6.80;;
71238;SDS011;61342;51.442;7.370;2023-05-27T04:29:09;19.67;;;6.77;;
71238;SDS011;61342;51.442;7.370;2023-05-27T04:30:11;13.47;;;5.97;;
71238;SDS011;61342;51.442;7.370;2023-05-27T04:31:12;19.83;;;7.27;;
71238;SDS011;61342;51.442;7.370;2023-05-27T04:32:13;13.77;;;6.07;;
71238;SDS011;61342;51.442;7.370;2023-05-27T04:33:16;16.57;;;6.27;;
71238;SDS011;61342;51.442;7.370;2023-05-27T04:34:17;16.63;;;6.77;;
71238;SDS011;61342;51.442;7.370;2023-05-27T04:35:26;18.93;;;6.63;;
71238;SDS011;61342;51.442;7.370;2023-05-27T04:36:44;14.87;;;6.23;;
71238;SDS011;61342;51.442;7.370;2023-05-27T04:37:51;16.97;;;6.80;;
71238;SDS011;61342;51.442;7.370;2023-05-27T04:38:55;14.60;;;7.00;;
71238;SDS011;61342;51.442;7.370;2023-05-27T04:39:58;16.70;;;6.73;;
71238;SDS011;61342;51.442;7.370;2023-05-27T04:40:59;23.10;;;6.97;;
71238;SDS011;61342;51.442;7.370;2023-05-27T04:42:00;19.30;;;7.03;;
71238;SDS011;61342;51.442;7.370;2023-05-27T04:43:02;15.60;;;6.63;;
71238;SDS011;61342;51.442;7.370;2023-05-27T04:44:02;14.57;;;6.53;;
71238;SDS011;61342;51.442;7.370;2023-05-27T04:45:03;15.03;;;6.50;;
71238;SDS011;61342;51.442;7.370;2023-05-27T04:46:04;17.57;;;6.43;;
71238;SDS011;61342;51.442;7.370;2023-05-27T04:47:05;17.13;;;7.00;;
71238;SDS011;61342;51.442;7.370;2023-05-27T04:48:05;21.70;;;6.93;;
71238;SDS011;61342;51.442;7.370;2023-05-27T04:49:06;14.33;;;6.83;;
71238;SDS011;61342;51.442;7.370;2023-05-27T04:50:07;19.27;;;6.77;;
71238;SDS011;61342;51.442;7.370;2023-05-27T04:51:08;18.63;;;6.63;;
71238;SDS011;61342;51.442;7.370;2023-05-27T04:52:08;16.77;;;6.87;;
71238;SDS011;61342;51.442;7.370;2023-05-27T04:53:09;15.43;;;6.87;;
71238;SDS011;61342;51.442;7.370;2023-05-27T04:54:09;19.03;;;7.33;;
71238;SDS011;61342;51.442;7.370;2023-05-27T04:55:11;17.30;;;6.67;;
71238;SDS011;61342;51.442;7.370;2023-05-27T04:56:11;21.83;;;6.27;;
71238;SDS011;61342;51.442;7.370;2023-05-27T04:57:15;14.37;;;5.97;;
71238;SDS011;61342;51.442;7.370;2023-05-27T04:58:19;17.97;;;7.23;;
71238;SDS011;61342;51.442;7.370;2023-05-27T04:59:20;15.40;;;6.80;;
71238;SDS011;61342;51.442;7.370;2023-05-27T05:00:22;16.80;;;7.60;;
71238;SDS011;61342;51.442;7.370;2023-05-27T05:01:24;18.23;;;6.97;;
71238;SDS011;61342;51.442;7.370;2023-05-27T05:02:25;17.73;;;7.23;;
71238;SDS011;61342;51.442;7.370;2023-05-27T05:03:33;14.53;;;7.23;;
71238;SDS011;61342;51.442;7.370;2023-05-27T05:04:39;18.30;;;7.03;;
71238;SDS011;61342;51.442;7.370;2023-05-27T05:05:39;23.77;;;7.47;;
71238;SDS011;61342;51.442;7.370;2023-05-27T05:06:40;19.07;;;7.37;;
71238;SDS011;61342;51.442;7.370;2023-05-27T05:07:41;17.93;;;7.77;;
71238;SDS011;61342;51.442;7.370;2023-05-27T05:08:43;13.37;;;7.17;;
71238;SDS011;61342;51.442;7.370;2023-05-27T05:09:43;20.13;;;7.23;;
71238;SDS011;61342;51.442;7.370;2023-05-27T05:10:46;18.07;;;7.43;;
71238;SDS011;61342;51.442;7.370;2023-05-27T05:11:47;20.77;;;7.70;;
71238;SDS011;61342;51.442;7.370;2023-05-27T05:12:47;14.70;;;6.97;;
71238;SDS011;61342;51.442;7.370;2023-05-27T05:13:48;14.13;;;7.00;;
71238;SDS011;61342;51.442;7.370;2023-05-27T05:14:48;15.70;;;6.83;;
71238;SDS011;61342;51.442;7.370;2023-05-27T05:15:49;15.07;;;6.73;;
71238;SDS011;61342;51.442;7.370;2023-05-27T05:16:49;15.07;;;7.17;;
71238;SDS011;61342;51.442;7.370;2023-05-27T05:17:50;16.73;;;6.97;;
71238;SDS011;61342;51.442;7.370;2023-05-27T05:18:50;15.70;;;6.70;;
71238;SDS011;61342;51.442;7.370;2023-05-27T05:19:53;22.77;;;7.83;;
71238;SDS011;61342;51.442;7.370;2023-05-27T05:20:54;20.00;;;7.60;;
71238;SDS011;61342;51.442;7.370;2023-05-27T05:21:55;15.93;;;6.90;;
71238;SDS011;61342;51.442;7.370;2023-05-27T05:22:55;20.43;;;7.73;;
71238;SDS011;61342;51.442;7.370;2023-05-27T05:23:56;19.60;;;7.23;;
71238;SDS011;61342;51.442;7.370;2023-05-27T05:24:56;24.80;;;7.57;;
71238;SDS011;61342;51.442;7.370;2023-05-27T05:25:57;17.20;;;7.37;;
71238;SDS011;61342;51.442;7.370;2023-05-27T05:27:05;14.87;;;6.60;;
71238;SDS011;61342;51.442;7.370;2023-05-27T05:28:07;19.47;;;6.87;;
71238;SDS011;61342;51.442;7.370;2023-05-27T05:29:07;19.30;;;6.73;;
71238;SDS011;61342;51.442;7.370;2023-05-27T05:30:08;17.13;;;7.27;;
71238;SDS011;61342;51.442;7.370;2023-05-27T05:31:09;20.23;;;7.27;;
71238;SDS011;61342;51.442;7.370;2023-05-27T05:32:09;20.13;;;7.50;;
71238;SDS011;61342;51.442;7.370;2023-05-27T05:33:13;19.23;;;7.00;;
71238;SDS011;61342;51.442;7.370;2023-05-27T05:34:13;21.97;;;7.97;;
71238;SDS011;61342;51.442;7.370;2023-05-27T05:35:14;18.77;;;8.17;;
71238;SDS011;61342;51.442;7.370;2023-05-27T05:36:14;17.50;;;7.73;;
71238;SDS011;61342;51.442;7.370;2023-05-27T05:37:17;17.50;;;7.43;;
71238;SDS011;61342;51.442;7.370;2023-05-27T05:38:18;24.40;;;8.13;;
71238;SDS011;61342;51.442;7.370;2023-05-27T05:39:18;18.77;;;7.43;;
71238;SDS011;61342;51.442;7.370;2023-05-27T05:40:21;23.20;;;7.17;;
71238;SDS011;61342;51.442;7.370;2023-05-27T05:41:22;18.37;;;7.13;;
71238;SDS011;61342;51.442;7.370;2023-05-27T05:42:23;19.77;;;7.23;;
71238;SDS011;61342;51.442;7.370;2023-05-27T05:43:25;21.77;;;7.90;;
71238;SDS011;61342;51.442;7.370;2023-05-27T05:44:26;18.57;;;7.80;;
71238;SDS011;61342;51.442;7.370;2023-05-27T05:45:26;15.47;;;7.77;;
71238;SDS011;61342;51.442;7.370;2023-05-27T05:46:27;15.90;;;7.57;;
71238;SDS011;61342;51.442;7.370;2023-05-27T05:47:27;15.97;;;7.87;;
71238;SDS011;61342;51.442;7.370;2023-05-27T05:48:27;21.60;;;7.83;;
71238;SDS011;61342;51.442;7.370;2023-05-27T05:49:28;16.63;;;7.43;;
71238;SDS011;61342;51.442;7.370;2023-05-27T05:50:28;16.53;;;7.10;;
71238;SDS011;61342;51.442;7.370;2023-05-27T05:51:29;16.67;;;7.67;;
71238;SDS011;61342;51.442;7.370;2023-05-27T05:52:30;15.27;;;7.73;;
71238;SDS011;61342;51.442;7.370;2023-05-27T05:53:31;18.03;;;7.77;;
71238;SDS011;61342;51.442;7.370;2023-05-27T05:54:32;18.97;;;7.37;;
71238;SDS011;61342;51.442;7.370;2023-05-27T05:55:32;18.20;;;7.10;;
71238;SDS011;61342;51.442;7.370;2023-05-27T05:56:36;19.53;;;7.63;;
71238;SDS011;61342;51.442;7.370;2023-05-27T05:57:36;15.57;;;7.47;;
71238;SDS011;61342;51.442;7.370;2023-05-27T05:58:37;21.93;;;8.00;;
71238;SDS011;61342;51.442;7.370;2023-05-27T05:59:40;18.10;;;7.43;;
71238;SDS011;61342;51.442;7.370;2023-05-27T06:00:41;20.13;;;7.90;;
71238;SDS011;61342;51.442;7.370;2023-05-27T06:01:41;18.27;;;7.63;;
71238;SDS011;61342;51.442;7.370;2023-05-27T06:02:42;14.47;;;6.97;;
71238;SDS011;61342;51.442;7.370;2023-05-27T06:03:44;18.70;;;6.87;;
71238;SDS011;61342;51.442;7.370;2023-05-27T06:04:45;17.97;;;6.87;;
71238;SDS011;61342;51.442;7.370;2023-05-27T06:05:46;24.73;;;8.00;;
71238;SDS011;61342;51.442;7.370;2023-05-27T06:06:49;19.17;;;7.93;;
71238;SDS011;61342;51.442;7.370;2023-05-27T06:07:50;15.57;;;6.83;;
71238;SDS011;61342;51.442;7.370;2023-05-27T06:08:51;20.13;;;8.13;;
71238;SDS011;61342;51.442;7.370;2023-05-27T06:09:54;21.83;;;7.37;;